Time;durP1;ratioP1;P1;durP2;ratioP2;P2;SDS_P1;SDS_P2;PMS_P1;PMS_P2;Temp;Humidity;BMP_temperature;BMP_pressure;BME280_temperature;BME280_humidity;BME280_pressure;Samples;Min_cycle;Max_cycle;Signal;HPM_P1;HPM_P2
2022/05/12 00:01:27;;;;;;;4.67;1.30;;;15.10;99.90;;;;;;5033948;28;20303;-81
2022/05/12 00:03:52;;;;;;;4.67;1.30;;;15.00;99.90;;;;;;5035051;28;20184;-80
2022/05/12 00:06:18;;;;;;;3.87;1.47;;;15.00;99.90;;;;;;5035259;28;20181;-78
2022/05/12 00:08:44;;;;;;;6.23;1.57;;;15.00;99.90;;;;;;5035271;28;20188;-82
2022/05/12 00:11:09;;;;;;;3.37;1.60;;;15.10;99.90;;;;;;5034673;28;20200;-81
2022/05/12 00:13:35;;;;;;;1.90;1.40;;;15.00;99.90;;;;;;5035106;28;20692;-83
2022/05/12 00:16:01;;;;;;;3.97;1.80;;;15.10;99.90;;;;;;5035047;28;20644;-80
2022/05/12 00:18:27;;;;;;;4.87;1.70;;;15.00;99.90;;;;;;5034871;28;20169;-81
2022/05/12 00:20:53;;;;;;;6.67;1.90;;;14.90;99.90;;;;;;5034782;28;20204;-80
2022/05/12 00:23:27;;;;;;;4.03;1.77;;;14.70;99.90;;;;;;5035136;28;20181;-80
2022/05/12 00:25:53;;;;;;;4.07;1.83;;;14.90;99.90;;;;;;5035217;28;20189;-80
2022/05/12 00:28:22;;;;;;;3.73;1.87;;;14.70;99.90;;;;;;5034874;28;20186;-79
2022/05/12 00:30:50;;;;;;;11.13;2.07;;;14.80;99.90;;;;;;5054820;28;20189;-80
2022/05/12 00:33:22;;;;;;;3.37;1.80;;;14.70;99.90;;;;;;5038140;28;20197;-80
2022/05/12 00:35:48;;;;;;;4.40;1.80;;;14.70;99.90;;;;;;5038934;28;20234;-80
2022/05/12 00:38:14;;;;;;;5.73;2.07;;;14.70;99.90;;;;;;5038562;28;20820;-80
2022/05/12 00:40:42;;;;;;;3.60;1.70;;;14.80;99.90;;;;;;5038550;28;20208;-80
2022/05/12 00:43:35;;;;;;;4.70;1.87;;;14.70;99.90;;;;;;5038103;28;20181;-78
2022/05/12 00:46:03;;;;;;;2.83;1.80;;;14.70;99.90;;;;;;5038526;28;20181;-81
2022/05/12 00:48:28;;;;;;;3.70;1.50;;;14.60;99.90;;;;;;5038557;28;20187;-80
2022/05/12 00:50:55;;;;;;;2.10;1.77;;;14.60;99.90;;;;;;5037919;28;20212;-78
2022/05/12 00:53:21;;;;;;;7.13;1.80;;;14.50;99.90;;;;;;5037583;28;20211;-82
2022/05/12 00:55:47;;;;;;;7.50;1.60;;;14.50;99.90;;;;;;5038116;28;20177;-81
2022/05/12 00:58:17;;;;;;;5.77;1.57;;;14.30;99.90;;;;;;5037580;28;20230;-81
2022/05/12 01:00:44;;;;;;;4.00;1.80;;;14.20;99.90;;;;;;5037283;28;20203;-80
2022/05/12 01:03:13;;;;;;;4.00;1.67;;;14.10;99.90;;;;;;5037783;28;20181;-80
2022/05/12 01:05:39;;;;;;;4.10;1.70;;;14.10;99.90;;;;;;5037941;28;20182;-81
2022/05/12 01:08:08;;;;;;;3.77;1.80;;;14.00;99.90;;;;;;5037620;28;20177;-81
2022/05/12 01:10:34;;;;;;;4.43;1.70;;;13.80;99.90;;;;;;5037308;28;20710;-81
2022/05/12 01:13:00;;;;;;;4.17;1.60;;;13.80;99.90;;;;;;5036652;28;20227;-79
2022/05/12 01:15:26;;;;;;;9.33;2.40;;;13.80;99.90;;;;;;5037547;28;20542;-78
2022/05/12 01:18:06;;;;;;;5.63;2.03;;;13.70;99.90;;;;;;5037421;28;20180;-79
2022/05/12 01:20:33;;;;;;;3.87;1.87;;;13.70;99.90;;;;;;5037169;28;20206;-79
2022/05/12 01:23:19;;;;;;;5.93;1.80;;;13.60;99.90;;;;;;5037259;28;20695;-79
2022/05/12 01:25:45;;;;;;;9.00;1.67;;;13.60;99.90;;;;;;5038335;28;20265;-78
2022/05/12 01:28:11;;;;;;;4.10;1.60;;;13.60;99.90;;;;;;5038234;28;20697;-79
2022/05/12 01:30:36;;;;;;;4.30;1.73;;;13.60;99.90;;;;;;5038001;28;20680;-81
2022/05/12 01:33:04;;;;;;;2.77;1.50;;;13.50;99.90;;;;;;5037328;28;20576;-81
2022/05/12 01:35:32;;;;;;;6.80;1.77;;;13.50;99.90;;;;;;5037490;28;20173;-81
2022/05/12 01:37:58;;;;;;;4.00;1.90;;;13.40;99.90;;;;;;5037317;28;20200;-81
2022/05/12 01:40:25;;;;;;;8.20;2.13;;;13.40;99.90;;;;;;5037470;28;20208;-79
2022/05/12 01:42:51;;;;;;;4.30;1.67;;;13.40;99.90;;;;;;5037994;28;20165;-78
2022/05/12 01:45:18;;;;;;;5.43;1.70;;;13.30;99.90;;;;;;5037809;28;20175;-78
2022/05/12 01:47:44;;;;;;;11.30;1.93;;;13.00;99.90;;;;;;5037973;28;20182;-79
2022/05/12 01:50:11;;;;;;;4.80;1.40;;;13.20;99.90;;;;;;5037344;28;20335;-80
2022/05/12 01:52:43;;;;;;;6.10;1.40;;;13.10;99.90;;;;;;5037460;28;20553;-77
2022/05/12 01:55:09;;;;;;;4.47;1.87;;;13.20;99.90;;;;;;5037962;28;20605;-79
2022/05/12 01:57:35;;;;;;;4.23;1.50;;;13.10;99.90;;;;;;5037535;28;20219;-78
2022/05/12 02:00:06;;;;;;;6.07;1.80;;;13.00;99.90;;;;;;5037187;28;20222;-77
2022/05/12 02:02:32;;;;;;;4.60;1.60;;;12.90;99.90;;;;;;5036086;28;20549;-78
2022/05/12 02:04:57;;;;;;;6.73;1.60;;;12.90;99.90;;;;;;5036492;28;20238;-81
2022/05/12 02:07:23;;;;;;;7.50;1.33;;;12.80;99.90;;;;;;5036763;28;20217;-80
2022/05/12 02:09:49;;;;;;;7.60;2.07;;;12.90;99.90;;;;;;5036968;28;20204;-79
2022/05/12 02:12:15;;;;;;;5.90;1.83;;;12.70;99.90;;;;;;5036658;28;20300;-80
2022/05/12 02:14:42;;;;;;;5.27;1.27;;;12.70;99.90;;;;;;5036889;28;20673;-80
2022/05/12 02:17:07;;;;;;;2.70;1.30;;;12.80;99.90;;;;;;5036995;28;20182;-80
2022/05/12 02:19:33;;;;;;;3.43;1.20;;;12.50;99.90;;;;;;5036386;28;20182;-79
2022/05/12 02:22:00;;;;;;;6.20;1.40;;;12.70;99.90;;;;;;5037086;28;20197;-80
2022/05/12 02:24:26;;;;;;;4.67;1.50;;;12.50;99.90;;;;;;5037155;28;20519;-78
2022/05/12 02:26:52;;;;;;;2.03;1.20;;;12.60;99.90;;;;;;5036626;28;20280;-79
2022/05/12 02:29:17;;;;;;;2.93;1.30;;;12.60;99.90;;;;;;5055380;28;20177;-78
2022/05/12 02:31:43;;;;;;;7.17;1.50;;;12.30;99.90;;;;;;5036977;28;20681;-80
2022/05/12 02:34:09;;;;;;;2.83;1.50;;;12.40;99.90;;;;;;5036804;28;20686;-79
2022/05/12 02:36:34;;;;;;;6.77;1.30;;;12.30;99.90;;;;;;5036722;28;20174;-78
2022/05/12 02:39:00;;;;;;;8.03;1.87;;;12.20;99.90;;;;;;5036476;28;20177;-80
2022/05/12 02:41:25;;;;;;;6.10;1.20;;;12.30;99.90;;;;;;5036868;28;20219;-79
2022/05/12 02:43:52;;;;;;;4.07;1.20;;;12.20;99.90;;;;;;5036787;28;20195;-80
2022/05/12 02:46:18;;;;;;;3.50;1.50;;;12.20;99.90;;;;;;5037072;28;20649;-79
2022/05/12 02:48:45;;;;;;;4.47;1.30;;;12.20;99.90;;;;;;5036319;28;20200;-80
2022/05/12 02:51:13;;;;;;;2.90;1.20;;;12.20;99.90;;;;;;5035948;28;20223;-80
2022/05/12 02:53:39;;;;;;;6.30;1.50;;;12.10;99.90;;;;;;5035582;28;20206;-80
2022/05/12 02:56:06;;;;;;;5.00;1.30;;;12.00;99.90;;;;;;5036184;28;20180;-80
2022/05/12 02:58:33;;;;;;;3.43;1.00;;;11.90;99.90;;;;;;5036791;28;20174;-79
2022/05/12 03:00:59;;;;;;;4.60;1.40;;;11.90;99.90;;;;;;5035490;28;20192;-79
2022/05/12 03:03:26;;;;;;;4.40;1.47;;;11.70;99.90;;;;;;5036639;28;20178;-79
2022/05/12 03:05:53;;;;;;;4.07;1.30;;;11.70;99.90;;;;;;5036354;28;20234;-81
2022/05/12 03:08:19;;;;;;;5.10;1.70;;;11.60;99.90;;;;;;5036154;28;20655;-79
2022/05/12 03:10:45;;;;;;;6.00;1.40;;;11.70;99.90;;;;;;5036304;28;20569;-78
2022/05/12 03:13:11;;;;;;;4.00;1.33;;;11.70;99.90;;;;;;5035697;28;20199;-79
2022/05/12 03:15:37;;;;;;;4.60;1.50;;;11.70;99.90;;;;;;5037052;28;20179;-81
2022/05/12 03:18:04;;;;;;;5.93;1.50;;;11.60;99.90;;;;;;5036392;28;20686;-78
2022/05/12 03:20:31;;;;;;;3.67;1.40;;;11.70;99.90;;;;;;5036427;28;20196;-80
2022/05/12 03:23:01;;;;;;;3.17;1.27;;;11.50;99.90;;;;;;5036569;28;20557;-80
2022/05/12 03:25:27;;;;;;;3.63;1.40;;;11.60;99.90;;;;;;5036556;28;20183;-78
2022/05/12 03:27:52;;;;;;;4.03;1.57;;;11.40;99.90;;;;;;5036606;28;20639;-80
2022/05/12 03:30:22;;;;;;;4.20;1.50;;;11.50;99.90;;;;;;5036621;28;20200;-80
2022/05/12 03:32:48;;;;;;;4.83;1.40;;;11.50;99.90;;;;;;5036144;28;20175;-78
2022/05/12 03:35:14;;;;;;;3.40;1.67;;;11.40;99.90;;;;;;5036777;28;20319;-79
2022/05/12 03:37:41;;;;;;;5.00;1.30;;;11.40;99.90;;;;;;5048406;22;20307;-80
2022/05/12 03:40:11;;;;;;;6.97;1.60;;;11.30;99.90;;;;;;5034477;28;20195;-80
2022/05/12 03:42:36;;;;;;;4.20;1.40;;;11.30;99.90;;;;;;5051772;28;20170;-80
2022/05/12 03:45:02;;;;;;;6.47;1.37;;;11.30;99.90;;;;;;5034180;28;20678;-80
2022/05/12 03:47:34;;;;;;;6.40;1.73;;;11.20;99.90;;;;;;5034736;28;20177;-80
2022/05/12 03:50:04;;;;;;;3.43;1.50;;;11.30;99.90;;;;;;5034497;28;20690;-80
2022/05/12 03:52:31;;;;;;;9.33;1.60;;;11.30;99.90;;;;;;5056436;22;20605;-82
2022/05/12 03:54:57;;;;;;;3.57;1.50;;;11.30;99.90;;;;;;5053176;28;20627;-81
2022/05/12 03:57:24;;;;;;;11.67;1.80;;;11.20;99.90;;;;;;5053735;28;20251;-80
2022/05/12 03:59:50;;;;;;;6.07;1.80;;;11.20;99.90;;;;;;5036178;28;20182;-80
2022/05/12 04:02:17;;;;;;;3.90;1.50;;;11.30;99.90;;;;;;5053893;28;20185;-81
2022/05/12 04:04:43;;;;;;;6.23;1.40;;;11.30;99.90;;;;;;5055482;28;20256;-82
2022/05/12 04:07:11;;;;;;;3.73;1.20;;;11.20;99.90;;;;;;5056409;28;20600;-82
2022/05/12 04:09:37;;;;;;;5.30;1.30;;;11.10;99.90;;;;;;5038926;28;20178;-82
2022/05/12 04:12:05;;;;;;;6.23;1.43;;;11.30;99.90;;;;;;5054301;28;20611;-82
2022/05/12 04:14:31;;;;;;;4.57;1.60;;;11.20;99.90;;;;;;5039253;28;20203;-83
2022/05/12 04:16:57;;;;;;;4.03;1.67;;;11.10;99.90;;;;;;5057525;28;20191;-83
2022/05/12 04:19:24;;;;;;;2.87;1.33;;;11.20;99.90;;;;;;5040032;28;20194;-83
2022/05/12 04:21:52;;;;;;;4.97;1.73;;;11.20;99.90;;;;;;5038500;28;20223;-82
2022/05/12 04:24:18;;;;;;;7.17;1.63;;;11.20;99.90;;;;;;5058490;28;20534;-82
2022/05/12 04:26:44;;;;;;;8.60;1.87;;;11.40;99.90;;;;;;5057512;28;20187;-81
2022/05/12 04:29:11;;;;;;;6.37;1.83;;;11.40;99.90;;;;;;5058227;28;20579;-82
2022/05/12 04:31:37;;;;;;;6.23;1.93;;;11.20;99.90;;;;;;5056801;28;20186;-82
2022/05/12 04:36:47;;;;;;;8.17;2.20;;;11.50;99.90;;;;;;5057186;28;20182;-83
2022/05/12 04:39:12;;;;;;;5.33;2.13;;;11.40;99.90;;;;;;5037827;28;20172;-82
2022/05/12 04:41:38;;;;;;;8.07;2.00;;;11.40;99.90;;;;;;5037449;28;20203;-82
2022/05/12 04:44:05;;;;;;;14.50;2.30;;;11.70;99.90;;;;;;5055931;28;20178;-82
2022/05/12 04:46:31;;;;;;;10.07;2.43;;;11.90;99.90;;;;;;5055736;28;20179;-82
2022/05/12 04:48:56;;;;;;;4.10;1.80;;;12.20;99.90;;;;;;5055699;28;20246;-82
2022/05/12 04:51:22;;;;;;;10.13;2.00;;;12.20;99.90;;;;;;5055409;28;20220;-82
2022/05/12 04:53:48;;;;;;;6.70;2.17;;;12.40;99.90;;;;;;5055274;28;20193;-82
2022/05/12 04:56:13;;;;;;;7.37;1.73;;;12.50;99.90;;;;;;5037488;28;20174;-82
2022/05/12 04:58:39;;;;;;;5.73;1.90;;;12.60;99.90;;;;;;5038130;28;20179;-82
2022/05/12 05:01:05;;;;;;;7.27;1.97;;;12.70;99.90;;;;;;5054845;28;20189;-82
2022/05/12 05:03:32;;;;;;;5.87;2.00;;;12.60;99.90;;;;;;5037806;28;20211;-82
2022/05/12 05:05:58;;;;;;;6.50;2.10;;;12.60;99.90;;;;;;5055601;28;20276;-82
2022/05/12 05:08:25;;;;;;;10.70;2.13;;;12.50;99.90;;;;;;5056663;28;20170;-83
2022/05/12 05:10:53;;;;;;;13.80;2.27;;;12.60;99.90;;;;;;5057701;28;20186;-81
2022/05/12 05:13:19;;;;;;;7.03;2.40;;;12.60;99.90;;;;;;5038236;28;20202;-82
2022/05/12 05:15:46;;;;;;;6.30;2.23;;;12.80;99.90;;;;;;5056362;28;20173;-82
2022/05/12 05:18:15;;;;;;;6.10;2.07;;;13.00;99.90;;;;;;5037562;28;20175;-82
2022/05/12 05:20:41;;;;;;;9.20;2.00;;;12.90;99.90;;;;;;5038859;28;20189;-82
2022/05/12 05:23:07;;;;;;;8.13;2.23;;;13.00;99.90;;;;;;5039482;28;20620;-82
2022/05/12 05:25:33;;;;;;;11.17;1.90;;;13.10;99.90;;;;;;5056448;28;20169;-83
2022/05/12 05:27:59;;;;;;;7.40;2.20;;;13.10;99.90;;;;;;5056879;28;20280;-83
2022/05/12 05:30:26;;;;;;;4.67;2.20;;;13.20;99.90;;;;;;5057276;28;20164;-84
2022/05/12 05:32:52;;;;;;;8.17;2.17;;;13.20;99.90;;;;;;5059127;28;20255;-83
2022/05/12 05:35:19;;;;;;;5.73;2.20;;;13.40;99.90;;;;;;5042317;28;20598;-83
2022/05/12 05:37:45;;;;;;;6.03;2.27;;;13.50;99.90;;;;;;5059412;28;20165;-83
2022/05/12 05:40:14;;;;;;;8.73;2.43;;;13.40;99.90;;;;;;5041495;28;20183;-82
2022/05/12 05:42:41;;;;;;;5.87;2.63;;;13.40;99.90;;;;;;5039312;28;20204;-83
2022/05/12 05:45:15;;;;;;;10.47;2.20;;;13.50;99.90;;;;;;5039903;28;20172;-82
2022/05/12 05:47:44;;;;;;;8.90;2.80;;;13.60;99.90;;;;;;5037875;28;20177;-82
2022/05/12 05:50:10;;;;;;;6.70;2.10;;;13.60;99.90;;;;;;5057775;28;20161;-82
2022/05/12 05:55:20;;;;;;;5.20;2.10;;;13.60;99.90;;;;;;5059460;28;20192;-83
2022/05/12 05:57:46;;;;;;;12.50;2.60;;;14.20;99.90;;;;;;5059643;28;20177;-82
2022/05/12 06:00:12;;;;;;;6.57;2.67;;;14.20;99.90;;;;;;5044275;28;20180;-82
2022/05/12 06:02:38;;;;;;;7.30;2.60;;;14.60;99.90;;;;;;5061706;28;20174;-82
2022/05/12 06:05:05;;;;;;;9.50;2.63;;;14.80;99.90;;;;;;5043471;28;20546;-83
2022/05/12 06:07:31;;;;;;;5.03;2.87;;;15.20;99.90;;;;;;5043933;28;20645;-84
2022/05/12 06:09:57;;;;;;;6.77;2.90;;;15.30;99.90;;;;;;5061027;28;20212;-83
2022/05/12 06:12:23;;;;;;;9.60;3.00;;;14.90;99.90;;;;;;5058635;28;20724;-84
2022/05/12 06:14:48;;;;;;;5.87;2.60;;;15.60;99.90;;;;;;5043834;28;20204;-83
2022/05/12 06:17:14;;;;;;;5.70;3.00;;;16.00;99.90;;;;;;5062290;28;20173;-84
2022/05/12 06:19:41;;;;;;;6.57;3.07;;;15.90;99.90;;;;;;5043367;28;20264;-84
2022/05/12 06:22:06;;;;;;;4.87;3.10;;;15.60;99.90;;;;;;5061132;28;20189;-84
2022/05/12 06:24:32;;;;;;;10.00;3.73;;;15.60;99.90;;;;;;5039822;28;20173;-83
2022/05/12 06:26:57;;;;;;;7.60;3.07;;;15.80;99.90;;;;;;5057571;28;20247;-84
2022/05/12 06:29:23;;;;;;;6.80;3.93;;;15.80;99.90;;;;;;5039275;28;20180;-82
2022/05/12 06:31:49;;;;;;;6.47;3.70;;;15.90;99.90;;;;;;5055673;28;20189;-83
2022/05/12 06:34:15;;;;;;;9.83;4.57;;;16.30;99.90;;;;;;5040035;28;20293;-82
2022/05/12 06:36:41;;;;;;;12.30;4.17;;;16.10;99.90;;;;;;5058228;28;20180;-82
2022/05/12 06:39:07;;;;;;;9.85;5.10;;;16.70;99.90;;;;;;5057065;28;20157;-83
2022/05/12 06:41:34;;;;;;;10.30;5.17;;;16.30;99.90;;;;;;5039049;28;20204;-82
2022/05/12 06:44:01;;;;;;;10.50;6.00;;;16.20;99.90;;;;;;5057626;28;20200;-83
2022/05/12 06:46:27;;;;;;;10.88;6.07;;;16.70;99.90;;;;;;5054835;28;20219;-82
2022/05/12 06:48:53;;;;;;;9.82;5.50;;;16.90;99.90;;;;;;5058214;28;20534;-83
2022/05/12 06:51:19;;;;;;;8.63;5.07;;;17.00;99.90;;;;;;5039290;28;20213;-84
2022/05/12 06:53:45;;;;;;;11.32;5.80;;;17.00;99.90;;;;;;5039884;28;20204;-83
2022/05/12 06:56:11;;;;;;;10.05;5.20;;;17.30;99.90;;;;;;5039241;28;20173;-83
2022/05/12 06:58:37;;;;;;;8.80;5.57;;;17.50;99.90;;;;;;5057918;28;20169;-83
2022/05/12 07:01:03;;;;;;;9.55;5.22;;;17.90;99.90;;;;;;5039800;28;20189;-83
2022/05/12 07:03:29;;;;;;;7.38;5.03;;;18.30;99.90;;;;;;5040269;28;20177;-83
2022/05/12 07:05:55;;;;;;;9.82;4.57;;;18.40;99.90;;;;;;5040959;28;20204;-84
2022/05/12 07:08:21;;;;;;;9.18;5.15;;;18.60;99.90;;;;;;5057708;28;20188;-83
2022/05/12 07:10:47;;;;;;;10.43;5.00;;;18.40;99.90;;;;;;5059027;28;20201;-83
2022/05/12 07:13:19;;;;;;;8.23;5.13;;;18.90;99.90;;;;;;5039248;28;20170;-82
2022/05/12 07:15:49;;;;;;;9.60;4.93;;;18.90;99.90;;;;;;5040796;28;20169;-82
2022/05/12 07:18:15;;;;;;;7.05;4.97;;;18.90;99.90;;;;;;5040070;28;20166;-83
2022/05/12 07:28:53;;;;;;;12.00;4.82;;;19.40;98.60;;;;;;5058702;28;20230;-82
2022/05/12 07:31:20;;;;;;;9.07;5.03;;;19.50;98.60;;;;;;5052202;28;20680;-82
2022/05/12 07:33:47;;;;;;;8.07;4.50;;;19.60;99.60;;;;;;5036332;28;20595;-82
2022/05/12 07:36:16;;;;;;;7.15;4.22;;;19.70;98.40;;;;;;5054363;28;20161;-83
2022/05/12 07:38:43;;;;;;;8.35;4.25;;;20.10;97.70;;;;;;5053655;28;20205;-82
2022/05/12 07:41:12;;;;;;;8.57;3.72;;;19.50;97.20;;;;;;5057384;28;20185;-82
2022/05/12 07:43:39;;;;;;;8.40;4.10;;;19.80;96.40;;;;;;5040149;28;20177;-82
2022/05/12 07:46:06;;;;;;;8.93;3.97;;;20.10;96.60;;;;;;5056503;28;20201;-83
2022/05/12 07:48:32;;;;;;;5.60;3.40;;;19.80;96.40;;;;;;5039684;28;20176;-80
2022/05/12 07:50:58;;;;;;;9.90;4.32;;;19.20;97.50;;;;;;5057077;28;20205;-82
2022/05/12 07:53:24;;;;;;;6.60;3.53;;;19.80;97.10;;;;;;5057072;28;20203;-82
2022/05/12 07:55:50;;;;;;;11.60;3.83;;;20.20;95.70;;;;;;5039988;28;20176;-82
2022/05/12 07:58:16;;;;;;;6.38;3.53;;;19.90;95.60;;;;;;5058241;28;20692;-83
2022/05/12 08:00:42;;;;;;;5.95;3.60;;;19.90;95.30;;;;;;5039611;28;20652;-82
2022/05/12 08:03:07;;;;;;;8.07;3.78;;;19.50;96.40;;;;;;5056618;28;20209;-82
2022/05/12 08:05:34;;;;;;;5.38;3.67;;;19.40;95.40;;;;;;5039064;28;20173;-83
2022/05/12 08:07:59;;;;;;;8.30;3.92;;;19.40;95.30;;;;;;5039684;28;20177;-83
2022/05/12 08:10:25;;;;;;;8.73;3.80;;;19.60;95.10;;;;;;5057879;28;20180;-81
2022/05/12 08:12:51;;;;;;;9.60;3.50;;;20.30;94.90;;;;;;5037917;28;20173;-82
2022/05/12 08:15:18;;;;;;;10.00;3.50;;;20.50;94.10;;;;;;5040104;28;20236;-82
2022/05/12 08:17:43;;;;;;;6.68;3.40;;;20.50;93.30;;;;;;5039988;28;20184;-83
2022/05/12 08:20:11;;;;;;;6.57;3.30;;;20.40;93.80;;;;;;5043226;28;20177;-80
2022/05/12 08:22:38;;;;;;;7.30;3.25;;;20.80;94.60;;;;;;5043277;28;20638;-80
2022/05/12 08:25:04;;;;;;;7.93;3.42;;;20.70;93.30;;;;;;5061915;28;20187;-82
2022/05/12 08:27:31;;;;;;;6.68;3.28;;;20.30;94.30;;;;;;5061545;28;20711;-83
2022/05/12 08:29:56;;;;;;;7.63;3.35;;;20.00;94.00;;;;;;5043980;28;20391;-82
2022/05/12 08:32:22;;;;;;;6.55;3.08;;;19.90;94.50;;;;;;5061450;28;20241;-83
2022/05/12 08:34:48;;;;;;;7.72;3.15;;;20.10;93.40;;;;;;5061605;28;20558;-82
2022/05/12 08:37:15;;;;;;;7.32;3.20;;;20.00;93.70;;;;;;5060784;28;20169;-81
2022/05/12 08:39:44;;;;;;;7.30;2.92;;;20.50;94.00;;;;;;5060698;28;20162;-81
2022/05/12 08:42:43;;;;;;;5.85;2.70;;;21.00;92.50;;;;;;5041972;28;20277;-82
2022/05/12 08:45:13;;;;;;;5.68;2.38;;;20.70;91.90;;;;;;5014986;28;20198;-82
2022/05/12 08:47:43;;;;;;;7.43;2.53;;;19.90;92.60;;;;;;5041296;28;20237;-81
2022/05/12 08:50:18;;;;;;;7.95;2.58;;;19.00;93.70;;;;;;5060450;28;20165;-80
2022/05/12 08:52:47;;;;;;;6.07;2.80;;;18.80;92.70;;;;;;5059877;28;20193;-81
2022/05/12 08:55:30;;;;;;;4.88;2.35;;;18.90;92.70;;;;;;5062631;28;20201;-83
2022/05/12 08:58:04;;;;;;;4.53;2.22;;;19.90;92.90;;;;;;5042213;28;20184;-80
2022/05/12 09:00:50;;;;;;;7.05;2.60;;;20.30;92.00;;;;;;5059248;28;20196;-82
2022/05/12 09:03:53;;;;;;;5.18;2.22;;;20.00;92.10;;;;;;5042486;28;20177;-82
2022/05/12 09:06:34;;;;;;;5.43;2.30;;;19.10;91.10;;;;;;5058104;28;20184;-82
2022/05/12 09:09:13;;;;;;;8.35;2.30;;;19.30;92.50;;;;;;5041732;28;20173;-83
2022/05/12 09:12:05;;;;;;;5.35;2.60;;;20.30;91.50;;;;;;5059532;28;20692;-81
2022/05/12 09:15:05;;;;;;;5.65;2.20;;;20.50;90.10;;;;;;5061792;28;20594;-83
2022/05/12 09:17:39;;;;;;;5.20;2.63;;;21.30;90.40;;;;;;5060927;28;20208;-82
2022/05/12 09:20:09;;;;;;;5.50;2.03;;;20.10;89.80;;;;;;5060164;28;20212;-83
2022/05/12 09:22:35;;;;;;;6.68;2.40;;;19.10;90.80;;;;;;5058588;28;20540;-83
2022/05/12 09:25:01;;;;;;;6.57;2.13;;;19.30;91.40;;;;;;5060731;28;20656;-82
2022/05/12 09:27:31;;;;;;;7.10;2.28;;;19.10;91.30;;;;;;5061167;28;20209;-83
2022/05/12 09:29:57;;;;;;;5.03;2.30;;;18.80;91.80;;;;;;5040788;28;20264;-81
2022/05/12 09:32:31;;;;;;;4.97;2.17;;;19.20;91.10;;;;;;5059019;28;20208;-83
2022/05/12 09:35:21;;;;;;;4.03;1.73;;;19.00;91.00;;;;;;5041505;28;20189;-83
2022/05/12 09:37:47;;;;;;;3.58;1.88;;;19.10;90.00;;;;;;5056665;28;20521;-82
2022/05/12 09:40:21;;;;;;;4.35;1.95;;;19.90;88.10;;;;;;5055698;28;20170;-80
2022/05/12 09:42:53;;;;;;;6.32;1.75;;;20.60;89.30;;;;;;5054663;28;20173;-83
2022/05/12 09:45:24;;;;;;;4.80;1.92;;;21.10;86.40;;;;;;5053064;28;20174;-84
2022/05/12 09:47:50;;;;;;;5.43;1.92;;;21.10;85.30;;;;;;5055644;28;20162;-81
2022/05/12 09:50:21;;;;;;;7.50;2.10;;;20.50;85.10;;;;;;5055189;28;20174;-81
2022/05/12 09:52:58;;;;;;;5.40;1.75;;;19.70;89.20;;;;;;5055586;28;20173;-82
2022/05/12 09:55:38;;;;;;;4.55;1.98;;;19.70;90.00;;;;;;5055558;28;20208;-82
2022/05/12 09:58:15;;;;;;;4.95;1.70;;;20.70;88.20;;;;;;5056025;28;20524;-82
2022/05/12 10:01:07;;;;;;;4.85;2.10;;;21.20;83.90;;;;;;5037502;28;20215;-81
2022/05/12 10:09:04;;;;;;;2.67;1.60;;;21.90;81.90;;;;;;5051954;28;20192;-82
2022/05/12 10:11:34;;;;;;;3.67;1.90;;;22.50;79.20;;;;;;5054177;28;20220;-82
2022/05/12 10:14:04;;;;;;;3.15;1.77;;;22.40;77.20;;;;;;5051057;28;20607;-82
2022/05/12 10:16:31;;;;;;;3.25;1.75;;;21.70;79.00;;;;;;5053828;28;20227;-82
2022/05/12 10:19:02;;;;;;;3.58;1.60;;;22.30;77.50;;;;;;5055557;28;20165;-83
2022/05/12 10:21:44;;;;;;;4.53;1.85;;;22.60;76.40;;;;;;5035101;28;20282;-84
2022/05/12 10:24:27;;;;;;;4.95;1.80;;;22.30;77.50;;;;;;5053984;28;20158;-83
2022/05/12 10:27:19;;;;;;;5.68;1.70;;;22.40;74.80;;;;;;5034851;28;20180;-84
2022/05/12 10:29:52;;;;;;;2.47;1.70;;;22.50;76.40;;;;;;5052599;28;20176;-85
2022/05/12 10:32:37;;;;;;;3.15;1.60;;;22.80;75.30;;;;;;5035833;28;20194;-82
2022/05/12 10:35:26;;;;;;;2.92;1.40;;;22.70;73.70;;;;;;5036220;28;20197;-83
2022/05/12 10:38:05;;;;;;;3.88;1.85;;;21.80;77.30;;;;;;5036994;28;20546;-84
2022/05/12 10:40:54;;;;;;;2.17;1.30;;;22.90;72.80;;;;;;5055654;28;20189;-82
2022/05/12 10:43:51;;;;;;;2.90;1.52;;;22.30;74.70;;;;;;5052993;28;20184;-83
2022/05/12 10:46:32;;;;;;;7.50;1.95;;;21.60;74.30;;;;;;4999024;28;20181;-84
2022/05/12 10:49:10;;;;;;;4.68;1.80;;;21.50;74.50;;;;;;5052586;28;20173;-83
2022/05/12 10:51:44;;;;;;;3.08;1.65;;;22.20;76.00;;;;;;5034216;28;20205;-83
2022/05/12 10:54:58;;;;;;;2.90;1.80;;;23.40;76.30;;;;;;5052935;28;20687;-83
2022/05/12 10:57:45;;;;;;;4.63;1.65;;;23.00;70.60;;;;;;5052697;28;20196;-82
2022/05/12 11:00:49;;;;;;;2.55;1.40;;;23.40;74.90;;;;;;5052599;28;20193;-84
2022/05/12 11:03:24;;;;;;;2.97;1.63;;;23.50;73.20;;;;;;5034145;28;20173;-81
2022/05/12 11:05:55;;;;;;;6.32;1.80;;;23.20;73.40;;;;;;5054833;28;20176;-83
2022/05/12 11:08:38;;;;;;;4.85;2.13;;;23.00;71.60;;;;;;5036044;28;20173;-83
2022/05/12 11:11:31;;;;;;;6.90;1.83;;;23.40;71.30;;;;;;5055913;28;20185;-82
2022/05/12 11:14:21;;;;;;;7.07;1.83;;;23.10;69.50;;;;;;5055045;28;20196;-83
2022/05/12 11:17:04;;;;;;;3.22;1.80;;;23.30;72.90;;;;;;5059365;28;20172;-82
2022/05/12 11:19:30;;;;;;;3.40;1.83;;;24.00;70.40;;;;;;5059858;28;20161;-82
2022/05/12 11:22:30;;;;;;;4.00;1.80;;;22.80;73.40;;;;;;5039680;28;20189;-85
2022/05/12 11:25:02;;;;;;;5.43;1.60;;;21.90;73.80;;;;;;5042448;28;20173;-84
2022/05/12 11:27:49;;;;;;;4.45;1.40;;;22.30;72.80;;;;;;5058509;28;20209;-83
2022/05/12 11:30:29;;;;;;;3.08;1.77;;;23.30;69.80;;;;;;5056292;28;20173;-84
2022/05/12 11:33:35;;;;;;;3.38;2.03;;;23.40;67.70;;;;;;5058462;28;20226;-85
2022/05/12 11:36:01;;;;;;;4.25;1.80;;;23.20;67.60;;;;;;5057267;28;20557;-82
2022/05/12 11:38:39;;;;;;;4.28;1.88;;;22.70;68.30;;;;;;5040872;28;20538;-82
2022/05/12 11:41:34;;;;;;;4.25;1.80;;;23.00;69.80;;;;;;5057680;28;20239;-82
2022/05/12 11:44:24;;;;;;;4.15;1.85;;;23.20;69.40;;;;;;5040761;28;20165;-82
2022/05/12 11:46:56;;;;;;;3.70;1.88;;;22.70;68.90;;;;;;5056327;28;20222;-83
2022/05/12 11:49:40;;;;;;;4.43;2.00;;;22.20;70.20;;;;;;5057485;28;20173;-84
2022/05/12 11:52:49;;;;;;;5.40;2.17;;;22.80;68.80;;;;;;5039030;28;20212;-82
2022/05/12 11:55:32;;;;;;;3.00;2.13;;;22.20;71.60;;;;;;5056802;28;20201;-84
2022/05/12 11:58:09;;;;;;;5.60;2.10;;;22.90;72.10;;;;;;5038364;28;20204;-82
2022/05/12 12:00:34;;;;;;;7.70;2.10;;;22.50;71.00;;;;;;5035232;28;20189;-84
2022/05/12 12:03:20;;;;;;;10.23;2.30;;;22.60;71.50;;;;;;5054763;28;20645;-83
2022/05/12 12:05:48;;;;;;;5.55;2.40;;;23.00;72.70;;;;;;5037198;28;20523;-82
2022/05/12 12:08:39;;;;;;;6.43;2.55;;;22.80;71.00;;;;;;5037256;28;20169;-82
2022/05/12 12:11:14;;;;;;;3.67;2.50;;;22.10;69.70;;;;;;5034931;28;20199;-81
2022/05/12 12:13:42;;;;;;;5.43;2.05;;;21.70;70.90;;;;;;5050852;28;20232;-83
2022/05/12 12:16:11;;;;;;;5.75;1.90;;;22.60;72.90;;;;;;5037039;28;20174;-83
2022/05/12 12:18:37;;;;;;;4.80;1.92;;;22.40;70.00;;;;;;5036067;28;20548;-85
2022/05/12 12:21:41;;;;;;;4.22;1.80;;;22.10;70.40;;;;;;5034594;28;20193;-84
2022/05/12 12:24:18;;;;;;;3.92;2.08;;;22.40;70.20;;;;;;5053230;28;20173;-84
2022/05/12 12:26:55;;;;;;;5.38;2.08;;;22.30;68.00;;;;;;5054018;28;20181;-83
2022/05/12 12:29:43;;;;;;;3.35;1.60;;;22.00;69.70;;;;;;5055925;28;20166;-81
2022/05/12 12:32:31;;;;;;;7.05;1.95;;;22.60;69.40;;;;;;5035523;28;20219;-83
2022/05/12 12:35:11;;;;;;;4.32;1.70;;;22.10;68.70;;;;;;5055527;28;20665;-82
2022/05/12 12:37:48;;;;;;;5.80;2.15;;;22.70;69.20;;;;;;5037964;28;20169;-82
2022/05/12 12:40:32;;;;;;;10.73;2.30;;;22.20;69.40;;;;;;5037756;28;20166;-83
2022/05/12 12:43:24;;;;;;;6.03;2.03;;;21.90;71.70;;;;;;5038765;28;20637;-84
2022/05/12 12:45:52;;;;;;;5.43;2.45;;;21.80;72.20;;;;;;5056562;28;20177;-83
2022/05/12 12:48:36;;;;;;;3.20;2.13;;;21.80;71.50;;;;;;5054476;28;20169;-85
2022/05/12 12:51:03;;;;;;;5.03;2.50;;;21.60;71.10;;;;;;5017279;28;1060977;-85
2022/05/12 12:56:36;;;;;;;4.75;2.30;;;21.40;72.20;;;;;;5057309;28;20303;-82
2022/05/12 12:59:07;;;;;;;17.88;4.20;;;21.70;71.80;;;;;;5039670;28;20637;-83
2022/05/12 13:01:54;;;;;;;11.18;3.25;;;21.80;71.20;;;;;;5038183;28;20193;-82
2022/05/12 13:04:31;;;;;;;26.30;5.80;;;21.60;72.00;;;;;;5058264;28;20669;-84
2022/05/12 13:07:00;;;;;;;29.95;7.53;;;21.40;71.30;;;;;;5038927;28;20201;-83
2022/05/12 13:09:35;;;;;;;5.63;2.60;;;21.40;70.40;;;;;;5039487;28;20180;-83
2022/05/12 13:12:11;;;;;;;37.50;6.07;;;21.20;71.00;;;;;;5036431;28;20534;-82
2022/05/12 13:14:40;;;;;;;6.80;2.67;;;21.00;72.50;;;;;;5040420;28;20197;-83
2022/05/12 13:17:06;;;;;;;6.55;2.92;;;21.20;72.60;;;;;;5057019;28;20172;-83
2022/05/12 13:19:39;;;;;;;2.33;1.73;;;21.60;70.10;;;;;;5056257;28;20188;-82
2022/05/12 13:22:07;;;;;;;4.00;2.05;;;21.80;72.60;;;;;;5055576;28;20185;-83
2022/05/12 13:24:35;;;;;;;5.65;2.25;;;22.00;69.50;;;;;;5038894;28;20205;-85
2022/05/12 13:27:04;;;;;;;3.70;1.88;;;21.60;71.00;;;;;;5055773;28;20687;-82